createdAt,value
2019-06-27T00:02:01.196Z,12.07
2019-06-27T00:04:29.567Z,15.70
2019-06-27T00:06:57.859Z,17.50
2019-06-27T00:09:26.553Z,19.00
2019-06-27T00:11:54.853Z,30.37
2019-06-27T00:14:23.165Z,30.60
2019-06-27T00:16:51.481Z,38.23
2019-06-27T00:19:19.788Z,35.67
2019-06-27T00:21:48.097Z,37.43
2019-06-27T00:24:16.404Z,30.63
2019-06-27T00:26:56.588Z,31.23
2019-06-27T00:29:14.639Z,26.73
2019-06-27T00:31:42.947Z,23.97
2019-06-27T00:34:11.250Z,23.93
2019-06-27T00:36:39.553Z,19.50
2019-06-27T00:39:07.840Z,17.73
2019-06-27T00:41:36.154Z,13.90
2019-06-27T00:44:04.442Z,12.30
2019-06-27T00:46:32.742Z,10.37
2019-06-27T00:49:01.029Z,10.77
2019-06-27T00:51:29.433Z,11.27
2019-06-27T00:53:57.722Z,8.40
2019-06-27T00:56:26.029Z,9.03
2019-06-27T00:58:54.330Z,12.93
2019-06-27T01:01:22.633Z,9.30
2019-06-27T01:03:50.938Z,15.37
2019-06-27T01:06:19.281Z,8.97
2019-06-27T01:08:47.524Z,8.47
2019-06-27T01:11:15.814Z,10.93
2019-06-27T01:13:44.098Z,10.37
2019-06-27T01:16:12.414Z,9.53
2019-06-27T01:18:40.685Z,12.00
2019-06-27T01:21:08.995Z,12.53
2019-06-27T01:23:37.263Z,14.47
2019-06-27T01:26:05.580Z,12.43
2019-06-27T01:28:33.853Z,9.37
2019-06-27T01:31:02.258Z,12.50
2019-06-27T01:33:30.557Z,9.57
2019-06-27T01:35:58.850Z,14.20
2019-06-27T01:38:27.145Z,13.00
2019-06-27T01:40:55.449Z,11.87
2019-06-27T01:43:23.745Z,9.37
2019-06-27T01:45:57.298Z,9.10
2019-06-27T01:48:25.581Z,10.87
2019-06-27T01:50:53.880Z,10.00
2019-06-27T01:53:22.261Z,9.10
2019-06-27T01:55:50.546Z,14.50
2019-06-27T01:58:18.846Z,8.70
2019-06-27T02:00:47.143Z,9.30
2019-06-27T02:03:15.520Z,8.07
2019-06-27T02:05:43.767Z,12.80
2019-06-27T02:08:12.065Z,8.60
2019-06-27T02:10:40.347Z,11.00
2019-06-27T02:13:08.641Z,10.33
2019-06-27T02:15:36.933Z,14.43
2019-06-27T02:18:05.347Z,11.03
2019-06-27T02:20:33.625Z,12.30
2019-06-27T02:23:02.048Z,9.13
2019-06-27T02:25:30.329Z,10.27
2019-06-27T02:28:03.588Z,13.23
2019-06-27T02:30:37.921Z,9.10
2019-06-27T02:33:06.275Z,9.13
2019-06-27T02:35:34.569Z,10.40
2019-06-27T02:38:02.897Z,12.23
2019-06-27T02:40:31.289Z,11.87
2019-06-27T02:42:59.597Z,10.47
2019-06-27T02:45:27.960Z,14.47
2019-06-27T02:47:56.267Z,12.37
2019-06-27T02:50:24.559Z,15.93
2019-06-27T02:52:52.861Z,19.53
2019-06-27T02:55:21.164Z,17.60
2019-06-27T02:57:49.450Z,14.70
2019-06-27T03:00:17.851Z,18.57
2019-06-27T03:02:46.156Z,13.60
2019-06-27T03:05:15.254Z,16.70
2019-06-27T03:07:43.564Z,15.47
2019-06-27T03:10:11.970Z,18.70
2019-06-27T03:12:40.375Z,14.70
2019-06-27T03:15:08.893Z,15.80
2019-06-27T03:17:37.218Z,14.10
2019-06-27T03:20:05.714Z,18.20
2019-06-27T03:22:34.034Z,18.33
2019-06-27T03:25:02.314Z,15.60
2019-06-27T03:27:30.617Z,13.23
2019-06-27T03:29:58.910Z,15.70
2019-06-27T03:32:27.206Z,15.07
2019-06-27T03:34:55.502Z,13.23
2019-06-27T03:37:23.804Z,14.37
2019-06-27T03:39:52.090Z,15.20
2019-06-27T03:42:20.466Z,12.10
2019-06-27T03:44:49.059Z,12.57
2019-06-27T03:47:17.367Z,12.83
2019-06-27T03:49:45.666Z,12.27
2019-06-27T03:52:13.975Z,10.87
2019-06-27T03:54:42.349Z,13.73
2019-06-27T03:57:10.679Z,12.40
2019-06-27T03:59:38.958Z,10.50
2019-06-27T04:02:07.257Z,12.43
2019-06-27T04:04:35.558Z,11.23
2019-06-27T04:07:03.852Z,12.87
2019-06-27T04:09:32.143Z,10.10
2019-06-27T04:12:00.431Z,12.20
2019-06-27T04:14:28.814Z,10.20
2019-06-27T04:16:57.118Z,11.87
2019-06-27T04:19:25.430Z,12.07
2019-06-27T04:21:53.719Z,10.67
2019-06-27T04:24:22.025Z,14.17
2019-06-27T04:26:50.428Z,9.73
2019-06-27T04:29:32.628Z,10.73
2019-06-27T04:31:48.684Z,13.73
2019-06-27T04:34:19.964Z,12.23
2019-06-27T04:36:47.295Z,10.40
2019-06-27T04:39:15.606Z,14.03
2019-06-27T04:41:43.914Z,11.30
2019-06-27T04:44:12.222Z,12.60
2019-06-27T04:46:40.539Z,13.00
2019-06-27T04:49:13.103Z,11.40
2019-06-27T04:51:38.757Z,10.93
2019-06-27T04:54:08.058Z,11.20
2019-06-27T04:56:36.366Z,9.63
2019-06-27T04:59:04.761Z,9.70
2019-06-27T05:01:33.054Z,8.60
2019-06-27T05:04:01.353Z,9.13
2019-06-27T05:06:29.740Z,10.70
2019-06-27T05:08:58.040Z,8.57
2019-06-27T05:11:26.322Z,8.80
2019-06-27T05:13:54.638Z,11.33
2019-06-27T05:16:23.041Z,9.47
2019-06-27T05:18:51.325Z,9.73
2019-06-27T05:21:19.617Z,8.93
2019-06-27T05:23:47.923Z,11.20
2019-06-27T05:26:16.201Z,8.97
2019-06-27T05:28:44.501Z,8.20
2019-06-27T05:31:12.793Z,11.67
2019-06-27T05:33:41.098Z,10.53
2019-06-27T05:36:09.494Z,9.77
2019-06-27T05:38:37.854Z,12.67
2019-06-27T05:41:06.108Z,9.53
2019-06-27T05:43:34.413Z,11.63
2019-06-27T05:46:02.697Z,9.20
2019-06-27T05:48:31.010Z,10.40
2019-06-27T05:50:59.301Z,12.37
2019-06-27T05:53:27.594Z,14.37
2019-06-27T05:55:55.890Z,9.77
2019-06-27T05:58:24.277Z,12.47
2019-06-27T06:00:52.572Z,11.03
2019-06-27T06:03:20.853Z,10.63
2019-06-27T06:05:49.143Z,16.10
2019-06-27T06:08:17.473Z,9.37
2019-06-27T06:10:45.800Z,10.57
2019-06-27T06:13:14.095Z,10.47
2019-06-27T06:15:42.399Z,12.97
2019-06-27T06:18:10.685Z,10.23
2019-06-27T06:20:38.992Z,9.60
2019-06-27T06:23:07.269Z,9.77
2019-06-27T06:25:35.563Z,11.90
2019-06-27T06:28:03.845Z,12.13
2019-06-27T06:30:43.711Z,8.77
2019-06-27T06:33:02.069Z,9.50
2019-06-27T06:35:30.365Z,11.10
2019-06-27T06:37:58.649Z,11.50
2019-06-27T06:40:26.947Z,11.43
2019-06-27T06:42:59.293Z,9.37
2019-06-27T06:45:25.189Z,10.97
2019-06-27T06:47:53.497Z,15.07
2019-06-27T06:50:23.558Z,13.80
2019-06-27T06:52:51.755Z,11.80
2019-06-27T06:55:20.061Z,9.20
2019-06-27T06:57:48.341Z,14.33
2019-06-27T07:00:16.806Z,10.43
2019-06-27T07:02:45.042Z,13.53
2019-06-27T07:05:13.441Z,11.50
2019-06-27T07:07:41.739Z,11.37
2019-06-27T07:10:10.048Z,10.07
2019-06-27T07:12:38.382Z,12.70
2019-06-27T07:15:06.969Z,11.43
2019-06-27T07:17:35.345Z,10.33
2019-06-27T07:20:03.762Z,11.60
2019-06-27T07:22:32.089Z,10.83
2019-06-27T07:25:00.370Z,11.73
2019-06-27T07:27:28.653Z,12.40
2019-06-27T07:29:56.948Z,15.40
2019-06-27T07:32:25.250Z,15.27
2019-06-27T07:34:53.554Z,11.03
2019-06-27T07:37:21.841Z,10.43
2019-06-27T07:39:50.161Z,12.77
2019-06-27T07:42:18.480Z,17.83
2019-06-27T07:44:46.798Z,14.43
2019-06-27T07:47:15.102Z,9.80
2019-06-27T07:49:43.422Z,13.07
2019-06-27T07:52:11.720Z,12.27
2019-06-27T07:54:40.048Z,11.10
2019-06-27T07:57:08.337Z,10.53
2019-06-27T07:59:36.669Z,10.23
2019-06-27T08:02:05.049Z,12.23
2019-06-27T08:04:33.357Z,11.90
2019-06-27T08:07:01.661Z,11.30
2019-06-27T08:09:29.958Z,9.03
2019-06-27T08:11:58.250Z,10.53
2019-06-27T08:14:26.560Z,8.63
2019-06-27T08:16:54.880Z,6.37
2019-06-27T08:19:23.472Z,8.90
2019-06-27T08:21:51.874Z,7.57
2019-06-27T08:24:20.158Z,9.83
2019-06-27T08:26:48.463Z,7.27
2019-06-27T08:29:16.752Z,6.33
2019-06-27T08:31:51.538Z,6.43
2019-06-27T08:34:15.053Z,7.53
2019-06-27T08:36:43.341Z,8.60
2019-06-27T08:39:11.741Z,5.63
2019-06-27T08:41:40.036Z,6.10
2019-06-27T08:44:08.364Z,7.17
2019-06-27T08:46:36.655Z,7.57
2019-06-27T08:49:05.043Z,9.10
2019-06-27T08:51:33.617Z,6.73
2019-06-27T08:54:02.051Z,7.17
2019-06-27T08:56:30.359Z,6.40
2019-06-27T08:58:58.630Z,6.43
2019-06-27T09:01:26.924Z,5.83
2019-06-27T09:03:55.222Z,6.47
2019-06-27T09:06:23.510Z,8.43
2019-06-27T09:08:51.796Z,6.60
2019-06-27T09:11:20.314Z,7.73
2019-06-27T09:13:48.612Z,7.27
2019-06-27T09:16:16.926Z,8.47
2019-06-27T09:18:45.222Z,6.63
2019-06-27T09:21:13.538Z,6.93
2019-06-27T09:23:41.839Z,9.00
2019-06-27T09:26:10.141Z,9.00
2019-06-27T09:28:38.447Z,6.80
2019-06-27T09:31:06.823Z,8.63
2019-06-27T09:33:35.040Z,7.40
2019-06-27T09:36:03.336Z,8.83
2019-06-27T09:38:31.637Z,7.50
2019-06-27T09:40:59.966Z,7.80
2019-06-27T09:43:28.229Z,7.07
2019-06-27T09:45:56.581Z,7.40
2019-06-27T09:48:24.861Z,7.20
2019-06-27T09:50:53.153Z,7.53
2019-06-27T09:53:21.454Z,8.27
2019-06-27T09:55:49.739Z,8.57
2019-06-27T09:58:18.086Z,7.20
2019-06-27T10:00:46.446Z,7.67
2019-06-27T10:03:15.246Z,8.70
2019-06-27T10:05:43.537Z,9.67
2019-06-27T10:08:11.826Z,8.83
2019-06-27T10:10:40.125Z,7.87
2019-06-27T10:13:08.426Z,9.50
2019-06-27T10:15:36.709Z,7.67
2019-06-27T10:18:05.127Z,10.97
2019-06-27T10:20:33.409Z,8.30
2019-06-27T10:23:01.697Z,7.30
2019-06-27T10:25:30.029Z,8.03
2019-06-27T10:27:58.309Z,8.00
2019-06-27T10:30:26.690Z,7.80
2019-06-27T10:32:59.636Z,7.50
2019-06-27T10:35:25.263Z,7.50
2019-06-27T10:37:53.698Z,7.83
2019-06-27T10:40:22.197Z,7.67
2019-06-27T10:42:50.741Z,6.83
2019-06-27T10:45:19.345Z,8.90
2019-06-27T10:47:47.937Z,9.37
2019-06-27T10:50:16.596Z,9.27
2019-06-27T10:52:45.116Z,8.60
2019-06-27T10:55:13.774Z,10.73
2019-06-27T10:57:42.261Z,8.87
2019-06-27T11:00:10.999Z,8.80
2019-06-27T11:02:39.740Z,7.73
2019-06-27T11:05:08.404Z,8.03
2019-06-27T11:07:40.602Z,7.77
2019-06-27T11:10:07.060Z,8.20
2019-06-27T11:12:35.604Z,8.27
2019-06-27T11:15:04.114Z,8.37
2019-06-27T11:17:32.638Z,7.67
2019-06-27T11:20:01.190Z,8.00
2019-06-27T11:22:29.986Z,7.70
2019-06-27T11:24:58.286Z,6.87
2019-06-27T11:27:27.526Z,6.80
2019-06-27T11:29:56.162Z,7.57
2019-06-27T11:32:24.566Z,9.27
2019-06-27T11:34:52.846Z,8.00
2019-06-27T11:37:21.898Z,8.77
2019-06-27T11:39:50.204Z,7.43
2019-06-27T11:42:18.506Z,8.13
2019-06-27T11:44:46.787Z,8.90
2019-06-27T11:47:15.201Z,7.47
2019-06-27T11:49:43.481Z,8.57
2019-06-27T11:52:12.042Z,8.50
2019-06-27T11:54:40.651Z,6.90
2019-06-27T11:57:09.176Z,7.73
2019-06-27T11:59:37.689Z,7.37
2019-06-27T12:02:07.200Z,7.03
2019-06-27T12:04:35.837Z,7.73
2019-06-27T12:07:04.283Z,8.03
2019-06-27T12:09:32.796Z,7.77
2019-06-27T12:12:01.213Z,8.20
2019-06-27T12:14:29.730Z,8.13
2019-06-27T12:16:58.130Z,9.80
2019-06-27T12:19:26.437Z,7.67
2019-06-27T12:21:55.005Z,9.53
2019-06-27T12:24:23.511Z,7.83
2019-06-27T12:26:52.037Z,7.60
2019-06-27T12:29:20.550Z,6.97
2019-06-27T12:31:51.554Z,7.70
2019-06-27T12:34:19.015Z,7.00
2019-06-27T12:36:47.530Z,7.23
2019-06-27T12:39:16.033Z,7.13
2019-06-27T12:41:44.640Z,8.00
2019-06-27T12:44:13.182Z,6.70
2019-06-27T12:46:41.693Z,7.70
2019-06-27T12:49:10.227Z,6.73
2019-06-27T12:51:38.749Z,6.60
2019-06-27T12:54:07.277Z,7.47
2019-06-27T12:56:35.787Z,8.03
2019-06-27T12:59:04.341Z,6.43
2019-06-27T13:01:32.634Z,7.40
2019-06-27T13:04:01.089Z,8.40
2019-06-27T13:06:29.672Z,8.73
2019-06-27T13:08:57.978Z,6.10
2019-06-27T13:11:26.321Z,6.70
2019-06-27T13:13:54.844Z,6.07
2019-06-27T13:16:23.363Z,6.80
2019-06-27T13:18:51.688Z,6.13
2019-06-27T13:21:19.973Z,7.83
2019-06-27T13:23:49.073Z,6.30
2019-06-27T13:26:17.378Z,9.03
2019-06-27T13:28:45.705Z,5.90
2019-06-27T13:31:14.004Z,6.60
2019-06-27T13:33:42.509Z,7.20
2019-06-27T13:36:10.805Z,6.10
2019-06-27T13:38:39.105Z,5.97
2019-06-27T13:41:07.406Z,6.60
2019-06-27T13:43:35.688Z,6.30
2019-06-27T13:46:04.077Z,7.70
2019-06-27T13:48:32.376Z,7.30
2019-06-27T13:51:00.666Z,6.90
2019-06-27T13:53:28.964Z,7.27
2019-06-27T13:55:57.353Z,7.17
2019-06-27T13:58:25.669Z,11.00
2019-06-27T14:00:54.017Z,7.27
2019-06-27T14:03:22.401Z,7.37
2019-06-27T14:05:50.697Z,11.23
2019-06-27T14:08:18.985Z,7.07
2019-06-27T14:10:47.499Z,6.67
2019-06-27T14:13:15.806Z,6.60
2019-06-27T14:15:44.089Z,6.87
2019-06-27T14:18:12.433Z,6.47
2019-06-27T14:20:40.709Z,8.67
2019-06-27T14:23:09.006Z,8.90
2019-06-27T14:25:37.304Z,7.13
2019-06-27T14:28:05.597Z,6.47
2019-06-27T14:30:33.889Z,7.10
2019-06-27T14:33:02.228Z,6.73
2019-06-27T14:35:30.507Z,6.77
2019-06-27T14:37:58.812Z,8.37
2019-06-27T14:40:27.201Z,8.33
2019-06-27T14:42:55.510Z,7.37
2019-06-27T14:45:23.840Z,7.93
2019-06-27T14:47:52.139Z,12.23
2019-06-27T14:50:20.526Z,6.80
2019-06-27T14:52:48.813Z,8.33
2019-06-27T14:55:17.317Z,7.63
2019-06-27T14:57:45.590Z,7.60
2019-06-27T15:00:13.977Z,8.27
2019-06-27T15:02:42.269Z,6.27
2019-06-27T15:05:10.653Z,6.33
2019-06-27T15:07:39.028Z,6.47
2019-06-27T15:10:07.905Z,6.97
2019-06-27T15:12:36.193Z,6.90
2019-06-27T15:15:04.591Z,6.97
2019-06-27T15:17:32.881Z,6.60
2019-06-27T15:20:01.202Z,6.87
2019-06-27T15:22:29.495Z,7.53
2019-06-27T15:24:57.776Z,7.23
2019-06-27T15:27:26.069Z,8.57
2019-06-27T15:29:54.361Z,9.87
2019-06-27T15:32:22.644Z,7.30
2019-06-27T15:34:50.977Z,6.93
2019-06-27T15:37:19.278Z,6.50
2019-06-27T15:39:47.589Z,9.13
2019-06-27T15:42:15.886Z,8.07
2019-06-27T15:44:44.209Z,7.17
2019-06-27T15:47:12.489Z,7.17
2019-06-27T15:49:40.809Z,6.50
2019-06-27T15:52:09.191Z,6.83
2019-06-27T15:54:37.575Z,7.57
2019-06-27T15:57:05.874Z,7.33
2019-06-27T15:59:34.174Z,7.60
2019-06-27T16:02:02.507Z,7.80
2019-06-27T16:04:34.469Z,7.70
2019-06-27T16:07:00.700Z,8.77
2019-06-27T16:09:29.030Z,7.57
2019-06-27T16:11:57.304Z,8.13
2019-06-27T16:14:25.613Z,10.57
2019-06-27T16:16:53.906Z,10.20
2019-06-27T16:19:22.245Z,7.50
2019-06-27T16:21:50.525Z,8.07
2019-06-27T16:24:18.881Z,8.63
2019-06-27T16:26:47.166Z,7.57
2019-06-27T16:29:15.453Z,8.63
2019-06-27T16:31:43.733Z,8.53
2019-06-27T16:34:12.052Z,8.03
2019-06-27T16:36:40.315Z,9.77
2019-06-27T16:39:08.717Z,8.63
2019-06-27T16:41:36.998Z,8.10
2019-06-27T16:44:05.298Z,10.37
2019-06-27T16:46:33.696Z,14.37
2019-06-27T16:49:01.998Z,34.13
2019-06-27T16:51:30.375Z,30.93
2019-06-27T16:53:58.653Z,14.73
2019-06-27T16:56:27.026Z,18.50
2019-06-27T16:58:55.373Z,32.87
2019-06-27T17:01:23.693Z,38.83
2019-06-27T17:03:52.017Z,43.50
2019-06-27T17:06:20.317Z,86.07
2019-06-27T17:08:48.609Z,116.23
2019-06-27T17:11:16.990Z,108.13
2019-06-27T17:13:45.277Z,65.10
2019-06-27T17:16:13.573Z,53.20
2019-06-27T17:18:41.884Z,67.23
2019-06-27T17:21:10.222Z,70.57
2019-06-27T17:23:38.549Z,89.07
2019-06-27T17:26:11.452Z,66.07
2019-06-27T17:28:37.150Z,35.37
2019-06-27T17:31:05.469Z,19.20
2019-06-27T17:33:33.935Z,15.57
2019-06-27T17:36:02.455Z,35.83
2019-06-27T17:38:30.778Z,80.50
2019-06-27T17:40:59.613Z,132.03
2019-06-27T17:43:27.937Z,88.27
2019-06-27T17:45:56.265Z,35.57
2019-06-27T17:48:24.576Z,25.13
2019-06-27T17:50:52.896Z,65.40
2019-06-27T17:53:21.197Z,102.93
2019-06-27T17:55:49.538Z,63.40
2019-06-27T17:58:17.838Z,49.70
2019-06-27T18:00:46.257Z,70.70
2019-06-27T18:03:14.562Z,67.03
2019-06-27T18:05:42.854Z,31.83
2019-06-27T18:08:11.165Z,47.63
2019-06-27T18:10:39.476Z,71.13
2019-06-27T18:13:07.780Z,97.93
2019-06-27T18:15:36.766Z,49.37
2019-06-27T18:18:05.073Z,21.47
2019-06-27T18:20:33.406Z,19.13
2019-06-27T18:23:01.727Z,12.53
2019-06-27T18:25:30.045Z,15.53
2019-06-27T18:27:58.361Z,12.93
2019-06-27T18:30:26.933Z,11.97
2019-06-27T18:32:55.342Z,11.63
2019-06-27T18:35:23.669Z,15.00
2019-06-27T18:37:51.997Z,12.93
2019-06-27T18:40:20.296Z,11.10
2019-06-27T18:42:48.625Z,11.47
2019-06-27T18:45:16.950Z,10.80
2019-06-27T18:47:45.262Z,15.57
2019-06-27T18:50:13.992Z,14.07
2019-06-27T18:52:42.295Z,15.67
2019-06-27T18:55:10.590Z,11.10
2019-06-27T18:57:38.898Z,18.77
2019-06-27T19:00:07.838Z,11.23
2019-06-27T19:02:36.145Z,14.40
2019-06-27T19:05:05.583Z,13.73
2019-06-27T19:07:44.827Z,10.40
2019-06-27T19:10:04.470Z,14.00
2019-06-27T19:12:32.774Z,12.50
2019-06-27T19:15:01.086Z,11.03
2019-06-27T19:17:29.389Z,13.07
2019-06-27T19:20:01.613Z,14.90
2019-06-27T19:22:49.413Z,12.63
2019-06-27T19:25:25.578Z,12.17
2019-06-27T19:27:53.893Z,12.60
2019-06-27T19:30:22.183Z,14.70
2019-06-27T19:32:50.491Z,14.77
2019-06-27T19:35:18.781Z,15.80
2019-06-27T19:38:00.863Z,12.73
2019-06-27T19:40:17.127Z,14.20
2019-06-27T19:42:45.437Z,19.50
2019-06-27T19:45:13.729Z,23.13
2019-06-27T19:47:42.048Z,18.60
2019-06-27T19:50:10.795Z,18.17
2019-06-27T19:52:39.099Z,18.97
2019-06-27T19:55:07.706Z,18.10
2019-06-27T19:57:36.037Z,19.73
2019-06-27T20:00:04.468Z,19.27
2019-06-27T20:02:32.768Z,19.47
2019-06-27T20:05:01.083Z,18.20
2019-06-27T20:07:29.385Z,16.03
2019-06-27T20:09:57.694Z,19.07
2019-06-27T20:12:25.989Z,16.47
2019-06-27T20:14:54.281Z,17.40
2019-06-27T20:17:22.589Z,19.67
2019-06-27T20:19:50.892Z,15.97
2019-06-27T20:22:19.211Z,16.97
2019-06-27T20:24:47.497Z,18.23
2019-06-27T20:27:15.826Z,20.20
2019-06-27T20:29:44.119Z,19.10
2019-06-27T20:32:12.426Z,16.00
2019-06-27T20:34:40.733Z,19.00
2019-06-27T20:37:09.142Z,19.37
2019-06-27T20:39:37.432Z,23.00
2019-06-27T20:42:05.737Z,14.30
2019-06-27T20:44:34.034Z,15.67
2019-06-27T20:47:02.326Z,15.33
2019-06-27T20:49:30.623Z,16.17
2019-06-27T20:51:58.918Z,14.80
2019-06-27T20:54:27.223Z,16.63
2019-06-27T20:56:55.523Z,14.97
2019-06-27T20:59:23.815Z,14.33
2019-06-27T21:01:52.102Z,15.03
2019-06-27T21:04:20.401Z,15.37
2019-06-27T21:06:48.699Z,17.63
2019-06-27T21:09:17.001Z,14.90
2019-06-27T21:11:45.293Z,19.00
2019-06-27T21:14:13.604Z,16.17
2019-06-27T21:16:41.895Z,17.80
2019-06-27T21:19:10.294Z,17.13
2019-06-27T21:21:38.611Z,26.07
2019-06-27T21:24:06.909Z,19.73
2019-06-27T21:26:35.317Z,16.70
2019-06-27T21:29:03.735Z,15.23
2019-06-27T21:31:32.023Z,16.33
2019-06-27T21:34:00.341Z,20.57
2019-06-27T21:36:28.636Z,16.27
2019-06-27T21:39:07.200Z,17.80
2019-06-27T21:41:26.933Z,18.20
2019-06-27T21:43:55.262Z,17.93
2019-06-27T21:46:23.544Z,16.13
2019-06-27T21:48:51.847Z,22.43
2019-06-27T21:51:20.130Z,21.97
2019-06-27T21:53:48.448Z,17.73
2019-06-27T21:56:16.733Z,20.70
2019-06-27T21:58:45.041Z,19.23
2019-06-27T22:01:13.437Z,19.60
2019-06-27T22:03:41.733Z,22.37
2019-06-27T22:06:10.041Z,17.67
2019-06-27T22:08:38.361Z,21.87
2019-06-27T22:11:06.757Z,21.20
2019-06-27T22:13:35.065Z,19.10
2019-06-27T22:16:03.359Z,18.73
2019-06-27T22:18:31.675Z,20.87
2019-06-27T22:20:59.974Z,21.77
2019-06-27T22:23:28.289Z,19.90
2019-06-27T22:25:56.574Z,18.67
2019-06-27T22:28:24.878Z,21.10
2019-06-27T22:30:53.165Z,20.73
2019-06-27T22:33:21.461Z,18.80
2019-06-27T22:35:49.756Z,23.30
2019-06-27T22:38:35.598Z,19.17
2019-06-27T22:41:21.502Z,21.97
2019-06-27T22:44:07.321Z,20.27
2019-06-27T22:46:53.265Z,18.07
2019-06-27T22:49:20.981Z,19.23
2019-06-27T22:52:11.356Z,18.70
2019-06-27T22:54:41.188Z,19.03
2019-06-27T22:57:09.596Z,20.77
2019-06-27T22:59:37.937Z,17.07
2019-06-27T23:02:06.241Z,19.00
2019-06-27T23:04:34.541Z,18.53
2019-06-27T23:07:02.857Z,18.50
2019-06-27T23:09:31.160Z,22.33
2019-06-27T23:11:59.476Z,18.97
2019-06-27T23:14:27.767Z,17.40
2019-06-27T23:16:56.068Z,18.27
2019-06-27T23:19:24.372Z,15.17
2019-06-27T23:21:52.703Z,17.10
2019-06-27T23:24:20.993Z,16.80
2019-06-27T23:26:49.292Z,14.20
2019-06-27T23:29:17.679Z,13.20
2019-06-27T23:31:45.985Z,14.30
2019-06-27T23:34:14.274Z,12.27
2019-06-27T23:36:42.564Z,14.00
2019-06-27T23:39:10.918Z,12.67
2019-06-27T23:41:39.253Z,11.60
2019-06-27T23:44:07.535Z,14.23
2019-06-27T23:46:40.306Z,11.90
2019-06-27T23:49:08.626Z,13.47
2019-06-27T23:51:36.934Z,11.50
2019-06-27T23:54:05.225Z,12.37
2019-06-27T23:56:33.542Z,14.50
2019-06-27T23:59:01.837Z,12.27
